Terminal Aerodrome Forecast
Issued by NWS Jackson, KY

Home | Current Version | Previous Version | Text Only | Print | Product List | Glossary On
Versions: 1 2 3 4 5 6 7 8 9 10 11 12 13 14
000
FTUS43 KJKL 120540
TAFJKL
TAF
KJKL 120540Z 1206/1306 25007KT P6SM BKN200 WS020/24035KT
     FM120900 26008KT P6SM VCSH SCT040 BKN090 WS020/24035KT
     FM121200 27008G17KT 3SM -SHSN OVC015
     FM121800 29011G19KT P6SM VCSH OVC035
     FM122000 29011G19KT P6SM BKN040
     FM130000 29007KT P6SM SCT070=

USA.gov is the U.S. government's official web portal to all federal, state and local government web resources and services.